sensor_id;sensor_type;location;lat;lon;timestamp;P1;durP1;ratioP1;P2;durP2;ratioP2
37305;SDS011;23193;42.656;21.170;2022-10-29T00:01:42;62.33;;;26.45;;
37305;SDS011;23193;42.656;21.170;2022-10-29T00:04:08;58.40;;;26.40;;
37305;SDS011;23193;42.656;21.170;2022-10-29T00:06:34;72.88;;;25.63;;
37305;SDS011;23193;42.656;21.170;2022-10-29T00:09:00;64.78;;;28.60;;
37305;SDS011;23193;42.656;21.170;2022-10-29T00:11:26;62.60;;;26.17;;
37305;SDS011;23193;42.656;21.170;2022-10-29T00:13:54;60.35;;;25.33;;
37305;SDS011;23193;42.656;21.170;2022-10-29T00:16:22;48.53;;;23.48;;
37305;SDS011;23193;42.656;21.170;2022-10-29T00:18:49;61.80;;;25.52;;
37305;SDS011;23193;42.656;21.170;2022-10-29T00:21:16;66.05;;;23.08;;
37305;SDS011;23193;42.656;21.170;2022-10-29T00:23:42;42.13;;;21.98;;
37305;SDS011;23193;42.656;21.170;2022-10-29T00:26:08;49.47;;;21.60;;
37305;SDS011;23193;42.656;21.170;2022-10-29T00:28:35;42.35;;;20.65;;
37305;SDS011;23193;42.656;21.170;2022-10-29T00:31:08;49.47;;;22.77;;
37305;SDS011;23193;42.656;21.170;2022-10-29T00:33:35;45.63;;;21.27;;
37305;SDS011;23193;42.656;21.170;2022-10-29T00:36:05;42.53;;;18.77;;
37305;SDS011;23193;42.656;21.170;2022-10-29T00:38:31;41.22;;;16.83;;
37305;SDS011;23193;42.656;21.170;2022-10-29T00:40:58;32.70;;;17.67;;
37305;SDS011;23193;42.656;21.170;2022-10-29T00:43:24;42.42;;;18.23;;
37305;SDS011;23193;42.656;21.170;2022-10-29T00:45:55;37.15;;;18.38;;
37305;SDS011;23193;42.656;21.170;2022-10-29T00:48:22;45.30;;;18.67;;
37305;SDS011;23193;42.656;21.170;2022-10-29T00:50:49;36.85;;;17.35;;
37305;SDS011;23193;42.656;21.170;2022-10-29T00:53:18;32.38;;;18.00;;
37305;SDS011;23193;42.656;21.170;2022-10-29T00:55:44;34.72;;;17.10;;
37305;SDS011;23193;42.656;21.170;2022-10-29T00:58:11;37.15;;;18.15;;
37305;SDS011;23193;42.656;21.170;2022-10-29T01:00:37;31.27;;;17.67;;
37305;SDS011;23193;42.656;21.170;2022-10-29T01:03:04;43.47;;;18.38;;
37305;SDS011;23193;42.656;21.170;2022-10-29T01:05:30;37.15;;;16.77;;
37305;SDS011;23193;42.656;21.170;2022-10-29T01:07:56;39.05;;;18.42;;
37305;SDS011;23193;42.656;21.170;2022-10-29T01:10:26;33.38;;;18.27;;
37305;SDS011;23193;42.656;21.170;2022-10-29T01:13:08;30.70;;;16.95;;
37305;SDS011;23193;42.656;21.170;2022-10-29T01:15:43;51.90;;;18.52;;
37305;SDS011;23193;42.656;21.170;2022-10-29T01:18:21;52.63;;;20.05;;
37305;SDS011;23193;42.656;21.170;2022-10-29T01:21:14;39.95;;;19.50;;
37305;SDS011;23193;42.656;21.170;2022-10-29T01:31:39;34.63;;;16.90;;
37305;SDS011;23193;42.656;21.170;2022-10-29T01:34:13;40.63;;;18.98;;
37305;SDS011;23193;42.656;21.170;2022-10-29T01:37:04;46.60;;;21.17;;
37305;SDS011;23193;42.656;21.170;2022-10-29T01:42:05;41.63;;;18.63;;
37305;SDS011;23193;42.656;21.170;2022-10-29T01:44:45;35.15;;;19.08;;
37305;SDS011;23193;42.656;21.170;2022-10-29T01:47:14;47.53;;;18.85;;
37305;SDS011;23193;42.656;21.170;2022-10-29T01:49:41;35.53;;;18.15;;
37305;SDS011;23193;42.656;21.170;2022-10-29T01:52:08;33.85;;;17.90;;
37305;SDS011;23193;42.656;21.170;2022-10-29T01:54:38;34.47;;;17.38;;
37305;SDS011;23193;42.656;21.170;2022-10-29T01:57:22;33.03;;;17.25;;
37305;SDS011;23193;42.656;21.170;2022-10-29T01:59:50;33.20;;;18.10;;
37305;SDS011;23193;42.656;21.170;2022-10-29T02:02:34;32.38;;;16.45;;
37305;SDS011;23193;42.656;21.170;2022-10-29T02:10:17;35.50;;;17.58;;
37305;SDS011;23193;42.656;21.170;2022-10-29T02:15:11;32.58;;;16.60;;
37305;SDS011;23193;42.656;21.170;2022-10-29T02:20:08;30.80;;;16.02;;
37305;SDS011;23193;42.656;21.170;2022-10-29T02:22:34;32.83;;;17.20;;
37305;SDS011;23193;42.656;21.170;2022-10-29T02:25:00;29.45;;;15.77;;
37305;SDS011;23193;42.656;21.170;2022-10-29T02:27:26;33.97;;;15.50;;
37305;SDS011;23193;42.656;21.170;2022-10-29T02:29:52;30.58;;;15.57;;
37305;SDS011;23193;42.656;21.170;2022-10-29T02:32:18;24.00;;;16.00;;
37305;SDS011;23193;42.656;21.170;2022-10-29T02:34:44;32.20;;;16.27;;
37305;SDS011;23193;42.656;21.170;2022-10-29T02:37:10;36.65;;;16.55;;
37305;SDS011;23193;42.656;21.170;2022-10-29T02:39:37;31.60;;;15.23;;
37305;SDS011;23193;42.656;21.170;2022-10-29T02:42:03;31.90;;;15.23;;
37305;SDS011;23193;42.656;21.170;2022-10-29T02:44:29;32.30;;;16.38;;
37305;SDS011;23193;42.656;21.170;2022-10-29T02:46:55;31.00;;;15.73;;
37305;SDS011;23193;42.656;21.170;2022-10-29T02:49:21;32.95;;;15.20;;
37305;SDS011;23193;42.656;21.170;2022-10-29T02:51:47;28.90;;;15.10;;
37305;SDS011;23193;42.656;21.170;2022-10-29T02:54:14;26.63;;;14.52;;
37305;SDS011;23193;42.656;21.170;2022-10-29T02:56:40;28.10;;;15.70;;
37305;SDS011;23193;42.656;21.170;2022-10-29T02:59:07;24.40;;;15.30;;
37305;SDS011;23193;42.656;21.170;2022-10-29T03:01:33;29.30;;;14.07;;
37305;SDS011;23193;42.656;21.170;2022-10-29T03:03:59;25.55;;;14.55;;
37305;SDS011;23193;42.656;21.170;2022-10-29T03:06:25;24.80;;;14.55;;
37305;SDS011;23193;42.656;21.170;2022-10-29T03:08:51;30.27;;;13.85;;
37305;SDS011;23193;42.656;21.170;2022-10-29T03:11:17;34.78;;;14.63;;
37305;SDS011;23193;42.656;21.170;2022-10-29T03:13:43;27.48;;;14.50;;
37305;SDS011;23193;42.656;21.170;2022-10-29T03:16:09;22.70;;;13.38;;
37305;SDS011;23193;42.656;21.170;2022-10-29T03:18:35;30.08;;;14.02;;
37305;SDS011;23193;42.656;21.170;2022-10-29T03:21:01;37.80;;;15.05;;
37305;SDS011;23193;42.656;21.170;2022-10-29T03:23:27;22.77;;;13.52;;
37305;SDS011;23193;42.656;21.170;2022-10-29T03:25:54;19.98;;;14.02;;
37305;SDS011;23193;42.656;21.170;2022-10-29T03:28:20;25.00;;;14.45;;
37305;SDS011;23193;42.656;21.170;2022-10-29T03:30:47;21.83;;;12.90;;
37305;SDS011;23193;42.656;21.170;2022-10-29T03:33:13;25.85;;;14.00;;
37305;SDS011;23193;42.656;21.170;2022-10-29T03:35:39;27.75;;;14.23;;
37305;SDS011;23193;42.656;21.170;2022-10-29T03:38:05;26.55;;;14.65;;
37305;SDS011;23193;42.656;21.170;2022-10-29T03:40:31;24.55;;;13.60;;
37305;SDS011;23193;42.656;21.170;2022-10-29T03:42:57;26.20;;;13.70;;
37305;SDS011;23193;42.656;21.170;2022-10-29T03:45:23;21.85;;;13.43;;
37305;SDS011;23193;42.656;21.170;2022-10-29T03:47:49;26.63;;;14.23;;
37305;SDS011;23193;42.656;21.170;2022-10-29T03:50:15;22.83;;;14.75;;
37305;SDS011;23193;42.656;21.170;2022-10-29T03:52:41;30.40;;;15.27;;
37305;SDS011;23193;42.656;21.170;2022-10-29T03:55:07;30.13;;;15.38;;
37305;SDS011;23193;42.656;21.170;2022-10-29T03:57:33;30.52;;;15.80;;
37305;SDS011;23193;42.656;21.170;2022-10-29T03:59:59;35.35;;;18.00;;
37305;SDS011;23193;42.656;21.170;2022-10-29T04:02:29;33.50;;;17.45;;
37305;SDS011;23193;42.656;21.170;2022-10-29T04:04:55;31.33;;;17.50;;
37305;SDS011;23193;42.656;21.170;2022-10-29T04:07:21;30.92;;;17.15;;
37305;SDS011;23193;42.656;21.170;2022-10-29T04:09:47;31.45;;;16.73;;
37305;SDS011;23193;42.656;21.170;2022-10-29T04:12:13;30.67;;;17.85;;
37305;SDS011;23193;42.656;21.170;2022-10-29T04:14:39;24.90;;;16.70;;
37305;SDS011;23193;42.656;21.170;2022-10-29T04:17:06;32.47;;;18.02;;
37305;SDS011;23193;42.656;21.170;2022-10-29T04:19:32;29.08;;;16.50;;
37305;SDS011;23193;42.656;21.170;2022-10-29T04:21:58;40.20;;;17.02;;
37305;SDS011;23193;42.656;21.170;2022-10-29T04:24:24;31.13;;;16.58;;
37305;SDS011;23193;42.656;21.170;2022-10-29T04:26:50;30.98;;;16.90;;
37305;SDS011;23193;42.656;21.170;2022-10-29T04:29:16;33.63;;;16.48;;
37305;SDS011;23193;42.656;21.170;2022-10-29T04:31:42;31.63;;;16.67;;
37305;SDS011;23193;42.656;21.170;2022-10-29T04:34:08;24.52;;;15.50;;
37305;SDS011;23193;42.656;21.170;2022-10-29T04:36:34;28.50;;;15.85;;
37305;SDS011;23193;42.656;21.170;2022-10-29T04:39:00;26.10;;;14.95;;
37305;SDS011;23193;42.656;21.170;2022-10-29T04:41:27;25.35;;;14.63;;
37305;SDS011;23193;42.656;21.170;2022-10-29T04:43:53;27.25;;;13.85;;
37305;SDS011;23193;42.656;21.170;2022-10-29T04:46:19;27.30;;;14.52;;
37305;SDS011;23193;42.656;21.170;2022-10-29T04:48:45;27.23;;;14.27;;
37305;SDS011;23193;42.656;21.170;2022-10-29T04:51:17;32.38;;;13.93;;
37305;SDS011;23193;42.656;21.170;2022-10-29T04:53:43;29.73;;;13.60;;
37305;SDS011;23193;42.656;21.170;2022-10-29T04:56:09;30.20;;;14.15;;
37305;SDS011;23193;42.656;21.170;2022-10-29T04:58:35;26.17;;;15.05;;
37305;SDS011;23193;42.656;21.170;2022-10-29T05:01:02;34.92;;;16.13;;
37305;SDS011;23193;42.656;21.170;2022-10-29T05:03:32;34.65;;;15.48;;
37305;SDS011;23193;42.656;21.170;2022-10-29T05:06:00;33.28;;;15.60;;
37305;SDS011;23193;42.656;21.170;2022-10-29T05:08:26;33.28;;;15.05;;
37305;SDS011;23193;42.656;21.170;2022-10-29T05:10:52;32.47;;;14.65;;
37305;SDS011;23193;42.656;21.170;2022-10-29T05:13:18;29.00;;;16.45;;
37305;SDS011;23193;42.656;21.170;2022-10-29T05:15:48;106.55;;;64.32;;
37305;SDS011;23193;42.656;21.170;2022-10-29T05:18:14;61.30;;;37.60;;
37305;SDS011;23193;42.656;21.170;2022-10-29T05:20:40;45.33;;;24.45;;
37305;SDS011;23193;42.656;21.170;2022-10-29T05:23:07;95.32;;;46.72;;
37305;SDS011;23193;42.656;21.170;2022-10-29T05:25:35;334.75;;;205.00;;
37305;SDS011;23193;42.656;21.170;2022-10-29T05:28:14;453.52;;;261.98;;
37305;SDS011;23193;42.656;21.170;2022-10-29T05:30:42;273.50;;;153.93;;
37305;SDS011;23193;42.656;21.170;2022-10-29T05:33:09;94.60;;;52.92;;
37305;SDS011;23193;42.656;21.170;2022-10-29T05:35:36;71.10;;;39.30;;
37305;SDS011;23193;42.656;21.170;2022-10-29T05:38:02;56.45;;;28.63;;
37305;SDS011;23193;42.656;21.170;2022-10-29T05:40:32;53.33;;;25.40;;
37305;SDS011;23193;42.656;21.170;2022-10-29T05:42:58;42.53;;;22.30;;
37305;SDS011;23193;42.656;21.170;2022-10-29T05:45:24;45.05;;;23.73;;
37305;SDS011;23193;42.656;21.170;2022-10-29T05:47:57;50.30;;;24.25;;
37305;SDS011;23193;42.656;21.170;2022-10-29T05:50:23;45.25;;;23.13;;
37305;SDS011;23193;42.656;21.170;2022-10-29T05:52:55;116.43;;;62.80;;
37305;SDS011;23193;42.656;21.170;2022-10-29T05:55:22;93.30;;;46.42;;
37305;SDS011;23193;42.656;21.170;2022-10-29T05:57:48;59.05;;;33.58;;
37305;SDS011;23193;42.656;21.170;2022-10-29T06:00:14;69.40;;;32.17;;
37305;SDS011;23193;42.656;21.170;2022-10-29T06:02:43;76.53;;;35.85;;
37305;SDS011;23193;42.656;21.170;2022-10-29T06:05:09;97.15;;;43.97;;
37305;SDS011;23193;42.656;21.170;2022-10-29T06:07:35;67.82;;;28.10;;
37305;SDS011;23193;42.656;21.170;2022-10-29T06:10:01;83.80;;;37.63;;
37305;SDS011;23193;42.656;21.170;2022-10-29T06:12:30;96.57;;;44.92;;
37305;SDS011;23193;42.656;21.170;2022-10-29T06:14:56;264.08;;;149.23;;
37305;SDS011;23193;42.656;21.170;2022-10-29T06:17:23;220.70;;;136.98;;
37305;SDS011;23193;42.656;21.170;2022-10-29T06:19:49;116.10;;;66.43;;
37305;SDS011;23193;42.656;21.170;2022-10-29T06:22:15;81.25;;;46.05;;
37305;SDS011;23193;42.656;21.170;2022-10-29T06:24:41;63.22;;;34.83;;
37305;SDS011;23193;42.656;21.170;2022-10-29T06:27:07;69.32;;;32.10;;
37305;SDS011;23193;42.656;21.170;2022-10-29T06:29:33;65.35;;;29.73;;
37305;SDS011;23193;42.656;21.170;2022-10-29T06:31:59;56.10;;;26.83;;
37305;SDS011;23193;42.656;21.170;2022-10-29T06:34:25;57.38;;;22.60;;
37305;SDS011;23193;42.656;21.170;2022-10-29T06:36:51;40.88;;;20.83;;
37305;SDS011;23193;42.656;21.170;2022-10-29T06:39:17;47.63;;;21.58;;
37305;SDS011;23193;42.656;21.170;2022-10-29T06:41:43;58.38;;;22.27;;
37305;SDS011;23193;42.656;21.170;2022-10-29T06:44:09;44.40;;;20.50;;
37305;SDS011;23193;42.656;21.170;2022-10-29T06:46:35;44.92;;;22.30;;
37305;SDS011;23193;42.656;21.170;2022-10-29T06:49:03;46.20;;;20.77;;
37305;SDS011;23193;42.656;21.170;2022-10-29T06:51:29;35.65;;;18.48;;
37305;SDS011;23193;42.656;21.170;2022-10-29T06:53:55;41.80;;;20.70;;
37305;SDS011;23193;42.656;21.170;2022-10-29T06:56:21;51.17;;;29.35;;
37305;SDS011;23193;42.656;21.170;2022-10-29T06:58:47;86.05;;;45.30;;
37305;SDS011;23193;42.656;21.170;2022-10-29T07:01:13;156.52;;;87.53;;
37305;SDS011;23193;42.656;21.170;2022-10-29T07:03:39;103.05;;;64.07;;
37305;SDS011;23193;42.656;21.170;2022-10-29T07:06:05;71.70;;;41.83;;
37305;SDS011;23193;42.656;21.170;2022-10-29T07:08:31;53.33;;;33.10;;
37305;SDS011;23193;42.656;21.170;2022-10-29T07:10:57;34.55;;;21.48;;
37305;SDS011;23193;42.656;21.170;2022-10-29T07:13:23;38.22;;;19.65;;
37305;SDS011;23193;42.656;21.170;2022-10-29T07:15:49;30.75;;;17.02;;
37305;SDS011;23193;42.656;21.170;2022-10-29T07:18:15;28.50;;;16.23;;
37305;SDS011;23193;42.656;21.170;2022-10-29T07:20:42;33.95;;;16.67;;
37305;SDS011;23193;42.656;21.170;2022-10-29T07:23:09;36.83;;;16.88;;
37305;SDS011;23193;42.656;21.170;2022-10-29T07:25:35;33.45;;;17.98;;
37305;SDS011;23193;42.656;21.170;2022-10-29T07:28:02;46.50;;;21.25;;
37305;SDS011;23193;42.656;21.170;2022-10-29T07:30:29;40.40;;;18.83;;
37305;SDS011;23193;42.656;21.170;2022-10-29T07:32:55;38.30;;;20.67;;
37305;SDS011;23193;42.656;21.170;2022-10-29T07:35:21;35.38;;;17.77;;
37305;SDS011;23193;42.656;21.170;2022-10-29T07:37:47;31.63;;;16.10;;
37305;SDS011;23193;42.656;21.170;2022-10-29T07:40:13;25.75;;;14.77;;
37305;SDS011;23193;42.656;21.170;2022-10-29T07:42:39;35.65;;;14.90;;
37305;SDS011;23193;42.656;21.170;2022-10-29T07:57:38;21.38;;;10.93;;
37305;SDS011;23193;42.656;21.170;2022-10-29T08:00:04;23.80;;;11.70;;
37305;SDS011;23193;42.656;21.170;2022-10-29T08:02:30;19.73;;;10.60;;
37305;SDS011;23193;42.656;21.170;2022-10-29T08:04:56;27.08;;;10.27;;
37305;SDS011;23193;42.656;21.170;2022-10-29T08:07:22;23.00;;;9.25;;
37305;SDS011;23193;42.656;21.170;2022-10-29T08:09:48;22.73;;;10.23;;
37305;SDS011;23193;42.656;21.170;2022-10-29T08:12:14;23.23;;;9.57;;
37305;SDS011;23193;42.656;21.170;2022-10-29T08:14:40;14.52;;;8.73;;
37305;SDS011;23193;42.656;21.170;2022-10-29T08:17:06;27.60;;;9.50;;
37305;SDS011;23193;42.656;21.170;2022-10-29T08:19:32;24.77;;;10.63;;
37305;SDS011;23193;42.656;21.170;2022-10-29T08:21:58;20.10;;;8.93;;
37305;SDS011;23193;42.656;21.170;2022-10-29T08:24:24;18.92;;;8.93;;
37305;SDS011;23193;42.656;21.170;2022-10-29T08:26:50;14.88;;;8.55;;
37305;SDS011;23193;42.656;21.170;2022-10-29T08:29:16;17.75;;;7.70;;
37305;SDS011;23193;42.656;21.170;2022-10-29T08:31:42;22.17;;;7.35;;
37305;SDS011;23193;42.656;21.170;2022-10-29T08:34:08;17.60;;;8.65;;
37305;SDS011;23193;42.656;21.170;2022-10-29T08:36:34;22.52;;;9.75;;
37305;SDS011;23193;42.656;21.170;2022-10-29T08:39:00;27.63;;;13.00;;
37305;SDS011;23193;42.656;21.170;2022-10-29T08:41:32;19.35;;;10.00;;
37305;SDS011;23193;42.656;21.170;2022-10-29T08:49:01;20.00;;;10.52;;
37305;SDS011;23193;42.656;21.170;2022-10-29T08:53:55;25.23;;;10.15;;
37305;SDS011;23193;42.656;21.170;2022-10-29T08:56:32;18.63;;;9.67;;
37305;SDS011;23193;42.656;21.170;2022-10-29T08:59:11;19.80;;;9.38;;
37305;SDS011;23193;42.656;21.170;2022-10-29T09:01:37;18.20;;;9.27;;
37305;SDS011;23193;42.656;21.170;2022-10-29T09:04:21;28.40;;;10.25;;
37305;SDS011;23193;42.656;21.170;2022-10-29T09:09:40;18.75;;;8.52;;
37305;SDS011;23193;42.656;21.170;2022-10-29T09:12:28;22.65;;;7.50;;
37305;SDS011;23193;42.656;21.170;2022-10-29T09:22:44;20.25;;;8.32;;
37305;SDS011;23193;42.656;21.170;2022-10-29T09:27:52;21.70;;;7.53;;
37305;SDS011;23193;42.656;21.170;2022-10-29T09:30:23;19.42;;;7.82;;
37305;SDS011;23193;42.656;21.170;2022-10-29T09:35:18;24.30;;;9.00;;
37305;SDS011;23193;42.656;21.170;2022-10-29T09:37:47;14.77;;;8.10;;
37305;SDS011;23193;42.656;21.170;2022-10-29T09:40:16;29.33;;;9.10;;
37305;SDS011;23193;42.656;21.170;2022-10-29T09:42:43;20.13;;;9.55;;
37305;SDS011;23193;42.656;21.170;2022-10-29T09:45:12;19.35;;;10.02;;
37305;SDS011;23193;42.656;21.170;2022-10-29T09:47:59;23.67;;;9.90;;
37305;SDS011;23193;42.656;21.170;2022-10-29T09:52:55;26.27;;;10.68;;
37305;SDS011;23193;42.656;21.170;2022-10-29T09:55:25;26.75;;;12.48;;
37305;SDS011;23193;42.656;21.170;2022-10-29T09:57:52;21.80;;;8.95;;
37305;SDS011;23193;42.656;21.170;2022-10-29T10:00:21;33.03;;;11.32;;
37305;SDS011;23193;42.656;21.170;2022-10-29T10:02:48;22.98;;;9.27;;
37305;SDS011;23193;42.656;21.170;2022-10-29T10:05:22;21.90;;;9.80;;
37305;SDS011;23193;42.656;21.170;2022-10-29T10:08:08;25.38;;;12.55;;
37305;SDS011;23193;42.656;21.170;2022-10-29T10:10:35;25.95;;;7.90;;
37305;SDS011;23193;42.656;21.170;2022-10-29T10:13:03;18.75;;;8.35;;
37305;SDS011;23193;42.656;21.170;2022-10-29T10:18:03;25.63;;;8.18;;
37305;SDS011;23193;42.656;21.170;2022-10-29T10:21:13;21.65;;;6.88;;
37305;SDS011;23193;42.656;21.170;2022-10-29T10:23:25;17.92;;;7.15;;
37305;SDS011;23193;42.656;21.170;2022-10-29T10:25:53;15.55;;;7.75;;
37305;SDS011;23193;42.656;21.170;2022-10-29T10:30:57;16.73;;;7.95;;
37305;SDS011;23193;42.656;21.170;2022-10-29T10:33:30;22.10;;;7.60;;
37305;SDS011;23193;42.656;21.170;2022-10-29T10:36:00;17.75;;;6.97;;
37305;SDS011;23193;42.656;21.170;2022-10-29T10:38:27;17.83;;;8.55;;
37305;SDS011;23193;42.656;21.170;2022-10-29T10:40:54;17.52;;;7.72;;
37305;SDS011;23193;42.656;21.170;2022-10-29T10:43:20;17.52;;;7.20;;
37305;SDS011;23193;42.656;21.170;2022-10-29T10:45:52;15.95;;;6.72;;
37305;SDS011;23193;42.656;21.170;2022-10-29T10:48:19;17.92;;;6.38;;
37305;SDS011;23193;42.656;21.170;2022-10-29T10:50:47;16.70;;;6.78;;
37305;SDS011;23193;42.656;21.170;2022-10-29T10:53:23;19.42;;;6.18;;
37305;SDS011;23193;42.656;21.170;2022-10-29T10:55:50;20.25;;;6.38;;
37305;SDS011;23193;42.656;21.170;2022-10-29T10:58:28;18.55;;;6.32;;
37305;SDS011;23193;42.656;21.170;2022-10-29T11:01:09;15.50;;;5.53;;
37305;SDS011;23193;42.656;21.170;2022-10-29T11:03:53;15.18;;;5.53;;
37305;SDS011;23193;42.656;21.170;2022-10-29T11:06:23;16.10;;;6.00;;
37305;SDS011;23193;42.656;21.170;2022-10-29T11:11:26;10.65;;;5.30;;
37305;SDS011;23193;42.656;21.170;2022-10-29T11:13:54;13.40;;;5.50;;
37305;SDS011;23193;42.656;21.170;2022-10-29T11:16:26;17.67;;;6.38;;
37305;SDS011;23193;42.656;21.170;2022-10-29T11:18:58;23.77;;;5.10;;
37305;SDS011;23193;42.656;21.170;2022-10-29T11:21:36;20.35;;;4.68;;
37305;SDS011;23193;42.656;21.170;2022-10-29T11:24:14;13.05;;;4.97;;
37305;SDS011;23193;42.656;21.170;2022-10-29T11:26:45;10.25;;;4.63;;
37305;SDS011;23193;42.656;21.170;2022-10-29T11:34:20;13.93;;;4.35;;
37305;SDS011;23193;42.656;21.170;2022-10-29T11:36:53;7.80;;;2.90;;
37305;SDS011;23193;42.656;21.170;2022-10-29T11:41:49;11.93;;;3.60;;
37305;SDS011;23193;42.656;21.170;2022-10-29T11:44:20;9.23;;;3.58;;
37305;SDS011;23193;42.656;21.170;2022-10-29T12:02:27;10.85;;;3.28;;
37305;SDS011;23193;42.656;21.170;2022-10-29T12:05:05;7.47;;;3.22;;
37305;SDS011;23193;42.656;21.170;2022-10-29T12:10:23;6.38;;;2.97;;
37305;SDS011;23193;42.656;21.170;2022-10-29T12:18:09;9.25;;;3.05;;
37305;SDS011;23193;42.656;21.170;2022-10-29T12:20:46;12.45;;;2.97;;
37305;SDS011;23193;42.656;21.170;2022-10-29T12:36:11;8.02;;;3.40;;
37305;SDS011;23193;42.656;21.170;2022-10-29T12:38:51;7.22;;;3.50;;
37305;SDS011;23193;42.656;21.170;2022-10-29T12:43:45;10.95;;;3.28;;
37305;SDS011;23193;42.656;21.170;2022-10-29T13:01:54;5.85;;;3.30;;
37305;SDS011;23193;42.656;21.170;2022-10-29T13:09:20;16.52;;;3.03;;
37305;SDS011;23193;42.656;21.170;2022-10-29T13:16:53;11.95;;;3.25;;
37305;SDS011;23193;42.656;21.170;2022-10-29T13:24:28;6.82;;;3.22;;
37305;SDS011;23193;42.656;21.170;2022-10-29T13:32:27;10.35;;;4.82;;
37305;SDS011;23193;42.656;21.170;2022-10-29T13:34:55;15.07;;;4.63;;
37305;SDS011;23193;42.656;21.170;2022-10-29T13:42:44;16.15;;;4.78;;
37305;SDS011;23193;42.656;21.170;2022-10-29T13:45:10;13.40;;;4.82;;
37305;SDS011;23193;42.656;21.170;2022-10-29T13:47:38;9.23;;;3.67;;
37305;SDS011;23193;42.656;21.170;2022-10-29T13:50:05;21.13;;;7.30;;
37305;SDS011;23193;42.656;21.170;2022-10-29T13:52:32;13.43;;;5.60;;
37305;SDS011;23193;42.656;21.170;2022-10-29T13:55:04;20.20;;;4.40;;
37305;SDS011;23193;42.656;21.170;2022-10-29T13:59:58;9.48;;;3.47;;
37305;SDS011;23193;42.656;21.170;2022-10-29T14:02:35;10.02;;;2.80;;
37305;SDS011;23193;42.656;21.170;2022-10-29T14:10:14;11.45;;;3.55;;
37305;SDS011;23193;42.656;21.170;2022-10-29T14:12:42;9.93;;;3.92;;
37305;SDS011;23193;42.656;21.170;2022-10-29T14:15:11;13.15;;;3.83;;
37305;SDS011;23193;42.656;21.170;2022-10-29T14:17:38;7.97;;;3.60;;
37305;SDS011;23193;42.656;21.170;2022-10-29T14:20:05;13.38;;;4.55;;
37305;SDS011;23193;42.656;21.170;2022-10-29T14:22:43;11.00;;;4.28;;
37305;SDS011;23193;42.656;21.170;2022-10-29T14:28:06;8.80;;;4.18;;
37305;SDS011;23193;42.656;21.170;2022-10-29T14:30:32;14.57;;;4.35;;
37305;SDS011;23193;42.656;21.170;2022-10-29T14:32:58;11.32;;;4.78;;
37305;SDS011;23193;42.656;21.170;2022-10-29T14:35:24;18.63;;;5.43;;
37305;SDS011;23193;42.656;21.170;2022-10-29T14:37:50;17.45;;;5.90;;
37305;SDS011;23193;42.656;21.170;2022-10-29T14:40:20;27.27;;;5.65;;
37305;SDS011;23193;42.656;21.170;2022-10-29T14:42:50;16.30;;;6.32;;
37305;SDS011;23193;42.656;21.170;2022-10-29T14:45:24;22.83;;;7.10;;
37305;SDS011;23193;42.656;21.170;2022-10-29T14:48:01;25.35;;;6.57;;
37305;SDS011;23193;42.656;21.170;2022-10-29T14:53:00;24.95;;;6.70;;
37305;SDS011;23193;42.656;21.170;2022-10-29T14:55:29;24.65;;;5.30;;
37305;SDS011;23193;42.656;21.170;2022-10-29T15:00:26;12.70;;;5.43;;
37305;SDS011;23193;42.656;21.170;2022-10-29T15:02:54;20.30;;;5.90;;
37305;SDS011;23193;42.656;21.170;2022-10-29T15:08:05;15.10;;;5.20;;
37305;SDS011;23193;42.656;21.170;2022-10-29T15:10:31;22.48;;;5.93;;
37305;SDS011;23193;42.656;21.170;2022-10-29T15:18:22;17.67;;;5.90;;
37305;SDS011;23193;42.656;21.170;2022-10-29T15:20:49;38.50;;;17.33;;
37305;SDS011;23193;42.656;21.170;2022-10-29T15:23:19;16.33;;;6.35;;
37305;SDS011;23193;42.656;21.170;2022-10-29T15:25:47;11.25;;;5.47;;
37305;SDS011;23193;42.656;21.170;2022-10-29T15:28:20;10.95;;;5.38;;
37305;SDS011;23193;42.656;21.170;2022-10-29T15:30:47;13.00;;;5.70;;
37305;SDS011;23193;42.656;21.170;2022-10-29T15:33:16;16.23;;;6.28;;
37305;SDS011;23193;42.656;21.170;2022-10-29T15:35:45;13.10;;;5.75;;
37305;SDS011;23193;42.656;21.170;2022-10-29T15:38:21;25.35;;;5.60;;
37305;SDS011;23193;42.656;21.170;2022-10-29T15:41:44;15.23;;;8.18;;
37305;SDS011;23193;42.656;21.170;2022-10-29T15:43:51;24.02;;;9.23;;
37305;SDS011;23193;42.656;21.170;2022-10-29T15:46:37;35.70;;;9.45;;
37305;SDS011;23193;42.656;21.170;2022-10-29T15:49:14;23.92;;;11.57;;
37305;SDS011;23193;42.656;21.170;2022-10-29T15:51:41;41.42;;;18.58;;
37305;SDS011;23193;42.656;21.170;2022-10-29T15:54:07;35.45;;;16.35;;
37305;SDS011;23193;42.656;21.170;2022-10-29T15:56:38;31.60;;;13.32;;
37305;SDS011;23193;42.656;21.170;2022-10-29T15:59:04;28.05;;;13.75;;
37305;SDS011;23193;42.656;21.170;2022-10-29T16:01:30;31.38;;;13.73;;
37305;SDS011;23193;42.656;21.170;2022-10-29T16:03:56;18.85;;;10.52;;
37305;SDS011;23193;42.656;21.170;2022-10-29T16:06:22;24.92;;;10.40;;
37305;SDS011;23193;42.656;21.170;2022-10-29T16:08:49;29.08;;;14.35;;
37305;SDS011;23193;42.656;21.170;2022-10-29T16:11:17;95.85;;;42.45;;
37305;SDS011;23193;42.656;21.170;2022-10-29T16:13:50;17.45;;;8.05;;
37305;SDS011;23193;42.656;21.170;2022-10-29T16:16:17;18.73;;;7.68;;
37305;SDS011;23193;42.656;21.170;2022-10-29T16:18:43;13.30;;;5.75;;
37305;SDS011;23193;42.656;21.170;2022-10-29T16:21:14;27.10;;;6.28;;
37305;SDS011;23193;42.656;21.170;2022-10-29T16:23:41;11.18;;;5.07;;
37305;SDS011;23193;42.656;21.170;2022-10-29T16:26:08;12.40;;;6.15;;
37305;SDS011;23193;42.656;21.170;2022-10-29T16:28:39;14.35;;;6.80;;
37305;SDS011;23193;42.656;21.170;2022-10-29T16:31:05;16.13;;;8.43;;
37305;SDS011;23193;42.656;21.170;2022-10-29T16:33:38;23.08;;;12.05;;
37305;SDS011;23193;42.656;21.170;2022-10-29T16:36:04;22.90;;;8.68;;
37305;SDS011;23193;42.656;21.170;2022-10-29T16:38:30;18.42;;;10.27;;
37305;SDS011;23193;42.656;21.170;2022-10-29T16:40:56;25.02;;;11.00;;
37305;SDS011;23193;42.656;21.170;2022-10-29T16:43:22;17.42;;;7.03;;
37305;SDS011;23193;42.656;21.170;2022-10-29T16:45:48;12.93;;;5.07;;
37305;SDS011;23193;42.656;21.170;2022-10-29T16:48:14;14.52;;;5.25;;
37305;SDS011;23193;42.656;21.170;2022-10-29T16:50:40;12.85;;;4.20;;
37305;SDS011;23193;42.656;21.170;2022-10-29T16:53:07;14.82;;;5.95;;
37305;SDS011;23193;42.656;21.170;2022-10-29T16:55:38;11.40;;;4.20;;
37305;SDS011;23193;42.656;21.170;2022-10-29T16:58:10;13.10;;;3.65;;
37305;SDS011;23193;42.656;21.170;2022-10-29T17:00:36;13.70;;;4.63;;
37305;SDS011;23193;42.656;21.170;2022-10-29T17:03:03;6.40;;;4.03;;
37305;SDS011;23193;42.656;21.170;2022-10-29T17:05:29;7.53;;;4.43;;
37305;SDS011;23193;42.656;21.170;2022-10-29T17:07:55;11.55;;;5.93;;
37305;SDS011;23193;42.656;21.170;2022-10-29T17:10:21;62.22;;;48.83;;
37305;SDS011;23193;42.656;21.170;2022-10-29T17:12:47;8.27;;;4.80;;
37305;SDS011;23193;42.656;21.170;2022-10-29T17:15:14;14.13;;;6.30;;
37305;SDS011;23193;42.656;21.170;2022-10-29T17:17:40;15.52;;;6.10;;
37305;SDS011;23193;42.656;21.170;2022-10-29T17:20:06;13.82;;;7.90;;